Aviation Digital Data Service (ADDS)

Output produced by METARs form (0419 UTC 19 February 2019)
found at http://www.aviationweather.gov/metar/data/
 
Forecast for: ZUGY (GUIYANG , CN)
Text: TAF ZUGY 190314Z 1906/2006 03004MPS 3000 BR FEW003 BKN015 OVC030 TX07/1907Z TN01/1923Z
Forecast period: 0600 to 1000 UTC 19 February 2019
Forecast type: FROM: standard forecast or significant change
Winds: from the NNE (30 degrees) at 9 MPH (8 knots; 4.1 m/s)
Visibility: 1.86 miles (2.99 km)
Ceiling: 1500 feet AGL
Clouds: few clouds at 300 feet AGL
broken clouds at 1500 feet AGL
overcast cloud deck at 3000 feet AGL
Weather: BR  (mist)
Text: BECMG 1910/1911 2000 -RA BR SCT002 BKN012 OVC026
Forecast period: 1000 UTC 19 February 2019 to 0600 UTC 20 February 2019
Forecast type: BECOMING: Conditions expected to become as follows by 1100 UTC 19 February 2019
Winds: from the NNE (30 degrees) at 9 MPH (8 knots; 4.1 m/s)
Visibility: 1.24 miles (2.00 km)
Ceiling: 1200 feet AGL
Clouds: scattered clouds at 200 feet AGL
broken clouds at 1200 feet AGL
overcast cloud deck at 2600 feet AGL
Weather: -RA BR  (light rain, mist)